International Virtual Aviation Organisation

Eastern Europe and Northern Asia MCD

 

Карточка аэропорта UAKK

Внимание!
Информация на этой странице в стадии наполнения.
Если вы не увидели какой-то информации, или заметили неточность - пожалуйста сообщите нам!
Спасибо!
Команда RU-STAFF
Название аэропортаКараганда
Название аэропорта (англ.)Karaganda
Превышение1768 ft. (538.9 m.)
Координаты49°40.302', 73°20.118'
Высота перехода10000
Эшелон переходаby ATC
Коды ответчика0630-0637, 7220-7227
Зона ОрВДНур-Султан РПИ (UACN)
Данные METARUAKK 101200Z 05010MPS 9999 BKN050CB 11/M01 Q1024 R05/0///70 NOSIG RMK QFE720/0961
Проноз погоды (TAF)UAKK 101104Z 1012/1112 06008MPS 9999 BKN030 TX13/1111Z TNM03/1024Z TEMPO 1012/1016 07015MPS 3100 -SHRA SCT005 BKN020CB TEMPO 1016/1103 07011MPS SCT011 TEMPO 1103/1112 07014MPS SCT020CB
NOTAMshow/hide NOTAM
AWOS   TABLE

Информация о ВПП

ВПП Длина ВПП (м.) Покрытие Курс ВПП Частота ILS
053601Железобетон50109.9
233601Железобетон230111.7

Диспетчерские позиции




Спутниковое изображение